Knoxville, IA

2:08 PM CST on February 24, 2018 (GMT -0600)
Knoxville Municipal

Weather History for KOXV - March, 2013

Change the Weather History Date:

Sunday, March 17, 2013

  Actual Average Record
Temperature  
Mean Temperature 31 °F -  
Max Temperature 39 °F 48 °F 78 °F (2012)
Min Temperature 23 °F 29 °F 8 °F (1993)
Degree Days  
Heating Degree Days 34    
Moisture  
Dew Point 21 °F    
Average Humidity 67    
Maximum Humidity 80    
Minimum Humidity 56    
Precipitation  
Precipitation 0.00 in - - ()
Sea Level Pressure  
Sea Level Pressure 30.02 in    
Wind  
Wind Speed 11 mph (East)    
Max Wind Speed 17 mph    
Max Gust Speed 23 mph    
Visibility 10 miles    
Events      
Averages and records for this station are not official NWS values.
T = Trace of Precipitation, MM = Missing Value Source: NWS Daily Summary

Daily Weather History Graph

Daily Weather History Graph

Search for Another Location

Airport or City:

Trip Planner

Search our weather history database for the weather conditions in past years. The results will help you decide how hot, cold, wet, or windy it might be!

Date:

Astronomy

Mar. 17, 2013 Rise Set
Actual Time 7:20 AM CDT 7:21 PM CDT
Civil Twilight 6:52 AM CDT 7:49 PM CDT
Nautical Twilight 6:20 AM CDT 8:21 PM CDT
Astronomical Twilight 5:48 AM CDT 8:54 PM CDT
Moon 10:30 AM CDT (3/17) 12:33 AM CDT (3/17)
Length of Visible Light 12h 56m
Length of Day
12h 01m
Waxing Crescent, 31% of the Moon is Illuminated
Mar 17
Waxing Crescent
Mar 19
First Quarter
Mar 27
Full
Apr 2
Last Quarter
Apr 10
New

Hourly Weather History & Observations

Time (CDT) Temp. Windchill Dew Point Humidity Pressure Visibility Wind Dir Wind Speed Gust Speed Precip Events Conditions
12:15 AM 28.4 °F 19.1 °F 19.4 °F 69% 30.17 in 10.0 mi North 10.4 mph - N/A   Mostly Cloudy
12:35 AM 28.4 °F 18.5 °F 19.4 °F 69% 30.17 in 10.0 mi North 11.5 mph 17.3 mph N/A   Scattered Clouds
12:55 AM 28.4 °F 19.1 °F 19.4 °F 69% 30.16 in 10.0 mi North 10.4 mph - N/A   Scattered Clouds
1:15 AM 26.6 °F 16.2 °F 19.4 °F 74% 30.16 in 10.0 mi North 11.5 mph - N/A   Scattered Clouds
1:35 AM 26.6 °F 16.8 °F 19.4 °F 74% 30.15 in 10.0 mi North 10.4 mph 16.1 mph N/A   Scattered Clouds
1:55 AM 26.6 °F 16.2 °F 17.6 °F 69% 30.15 in 10.0 mi North 11.5 mph - N/A   Clear
2:15 AM 26.6 °F 17.5 °F 17.6 °F 69% 30.14 in 10.0 mi NNE 9.2 mph - N/A   Clear
2:35 AM 26.6 °F 17.5 °F 17.6 °F 69% 30.14 in 10.0 mi NNE 9.2 mph - N/A   Scattered Clouds
2:55 AM 26.6 °F 18.2 °F 19.4 °F 74% 30.13 in 10.0 mi NNE 8.1 mph - N/A   Scattered Clouds
3:15 AM 24.8 °F 14.6 °F 17.6 °F 74% 30.11 in 10.0 mi NNE 10.4 mph - N/A   Clear
3:35 AM 24.8 °F 13.4 °F 17.6 °F 74% 30.11 in 10.0 mi NNE 12.7 mph - N/A   Clear
3:55 AM 24.8 °F 14.0 °F 17.6 °F 74% 30.11 in 10.0 mi NNE 11.5 mph 19.6 mph N/A   Clear
4:15 AM 24.8 °F 13.4 °F 17.6 °F 74% 30.11 in 10.0 mi NNE 12.7 mph 16.1 mph N/A   Scattered Clouds
4:35 AM 24.8 °F 14.6 °F 17.6 °F 74% 30.12 in 10.0 mi NNE 10.4 mph - N/A   Scattered Clouds
4:55 AM 24.8 °F 15.3 °F 17.6 °F 74% 30.12 in 10.0 mi NE 9.2 mph - N/A   Scattered Clouds
5:15 AM 24.8 °F 16.1 °F 15.8 °F 69% 30.12 in 10.0 mi NE 8.1 mph - N/A   Scattered Clouds
5:35 AM 24.8 °F 16.1 °F 15.8 °F 69% 30.12 in 10.0 mi NE 8.1 mph - N/A   Clear
5:55 AM 24.8 °F 17.9 °F 17.6 °F 74% 30.12 in 10.0 mi NE 5.8 mph - N/A   Clear
6:15 AM 24.8 °F 16.9 °F 17.6 °F 74% 30.12 in 10.0 mi ENE 6.9 mph - N/A   Mostly Cloudy
6:35 AM 24.8 °F 16.9 °F 17.6 °F 74% 30.12 in 10.0 mi NE 6.9 mph - N/A   Scattered Clouds
6:55 AM 24.8 °F 16.1 °F 17.6 °F 74% 30.12 in 10.0 mi ENE 8.1 mph - N/A   Clear
7:15 AM 24.8 °F 15.3 °F 17.6 °F 74% 30.12 in 10.0 mi ENE 9.2 mph - N/A   Clear
7:35 AM 23.0 °F 14.7 °F 15.8 °F 74% 30.13 in 10.0 mi ENE 6.9 mph - N/A   Clear
7:55 AM 23.0 °F 13.9 °F 17.6 °F 80% 30.14 in 10.0 mi ENE 8.1 mph - N/A   Clear
8:15 AM 24.8 °F 16.1 °F 17.6 °F 74% 30.14 in 10.0 mi ENE 8.1 mph - N/A   Clear
8:35 AM 24.8 °F 13.4 °F 17.6 °F 74% 30.14 in 10.0 mi East 12.7 mph - N/A   Clear
8:55 AM 26.6 °F 16.2 °F 17.6 °F 69% 30.14 in 10.0 mi East 11.5 mph 17.3 mph N/A   Clear
9:15 AM 26.6 °F 18.2 °F 17.6 °F 69% 30.14 in 10.0 mi East 8.1 mph 18.4 mph N/A   Clear
9:35 AM 28.4 °F 18.0 °F 17.6 °F 64% 30.13 in 10.0 mi East 12.7 mph 20.7 mph N/A   Scattered Clouds
9:55 AM 30.2 °F 19.3 °F 17.6 °F 60% 30.12 in 10.0 mi East 15.0 mph - N/A   Scattered Clouds
10:15 AM 30.2 °F 21.3 °F 17.6 °F 60% 30.12 in 10.0 mi East 10.4 mph 17.3 mph N/A   Scattered Clouds
10:35 AM 30.2 °F 19.3 °F 17.6 °F 60% 30.12 in 10.0 mi East 15.0 mph 20.7 mph N/A   Scattered Clouds
10:55 AM 30.2 °F 20.2 °F 19.4 °F 64% 30.12 in 10.0 mi East 12.7 mph - N/A   Mostly Cloudy
11:15 AM 32.0 °F 23.0 °F 19.4 °F 60% 30.11 in 10.0 mi East 11.5 mph 17.3 mph N/A   Mostly Cloudy
11:35 AM 33.8 °F 25.3 °F 19.4 °F 56% 30.10 in 10.0 mi East 11.5 mph 18.4 mph N/A   Scattered Clouds
11:55 AM 33.8 °F 23.9 °F 19.4 °F 56% 30.08 in 10.0 mi East 15.0 mph 18.4 mph N/A   Scattered Clouds
12:15 PM 33.8 °F 24.8 °F 21.2 °F 60% 30.07 in 10.0 mi East 12.7 mph - N/A   Scattered Clouds
12:35 PM 35.6 °F 26.2 °F 21.2 °F 56% 30.06 in 10.0 mi East 15.0 mph 20.7 mph N/A   Scattered Clouds
12:55 PM 35.6 °F 27.1 °F 21.2 °F 56% 30.05 in 10.0 mi East 12.7 mph 18.4 mph N/A   Scattered Clouds
1:15 PM 35.6 °F 27.1 °F 21.2 °F 56% 30.04 in 10.0 mi ESE 12.7 mph 19.6 mph N/A   Scattered Clouds
1:35 PM 35.6 °F 26.6 °F 21.2 °F 56% 30.02 in 10.0 mi ESE 13.8 mph 23.0 mph N/A   Clear
1:55 PM 37.4 °F 29.3 °F 23.0 °F 56% 30.01 in 10.0 mi East 12.7 mph 19.6 mph N/A   Clear
2:15 PM 35.6 °F 27.1 °F 21.2 °F 56% 30.00 in 10.0 mi ESE 12.7 mph 18.4 mph N/A   Clear
2:35 PM 37.4 °F 29.8 °F 23.0 °F 56% 29.98 in 10.0 mi ESE 11.5 mph - N/A   Clear
2:55 PM 37.4 °F 30.3 °F 23.0 °F 56% 29.97 in 10.0 mi ESE 10.4 mph 18.4 mph N/A   Clear
3:15 PM 37.4 °F 29.8 °F 23.0 °F 56% 29.96 in 10.0 mi East 11.5 mph 18.4 mph N/A   Clear
3:35 PM 37.4 °F 28.5 °F 24.8 °F 60% 29.95 in 10.0 mi East 15.0 mph 19.6 mph N/A   Scattered Clouds
3:55 PM 37.4 °F 29.3 °F 24.8 °F 60% 29.94 in 10.0 mi ESE 12.7 mph 18.4 mph N/A   Scattered Clouds
4:15 PM 37.4 °F 29.8 °F 24.8 °F 60% 29.93 in 10.0 mi ESE 11.5 mph 21.9 mph N/A   Scattered Clouds
4:35 PM 37.4 °F 28.2 °F 24.8 °F 60% 29.92 in 10.0 mi ESE 16.1 mph 19.6 mph N/A   Clear
4:55 PM 39.2 °F 30.8 °F 24.8 °F 56% 29.91 in 10.0 mi East 15.0 mph 19.6 mph N/A   Clear
5:15 PM 39.2 °F 32.0 °F 24.8 °F 56% 29.91 in 10.0 mi ESE 11.5 mph 21.9 mph N/A   Clear
5:35 PM 39.2 °F 31.6 °F 24.8 °F 56% 29.90 in 10.0 mi ESE 12.7 mph 21.9 mph N/A   Clear
5:55 PM 37.4 °F 29.3 °F 24.8 °F 60% 29.89 in 10.0 mi East 12.7 mph 21.9 mph N/A   Clear
6:15 PM 37.4 °F 27.8 °F 24.8 °F 60% 29.90 in 10.0 mi ESE 17.3 mph - N/A   Scattered Clouds
6:35 PM 35.6 °F 29.2 °F 24.8 °F 65% 29.89 in 10.0 mi ESE 8.1 mph 18.4 mph N/A   Scattered Clouds
6:55 PM 35.6 °F 28.0 °F 24.8 °F 65% 29.89 in 10.0 mi East 10.4 mph 17.3 mph N/A   Clear
7:15 PM 35.6 °F 27.5 °F 24.8 °F 65% 29.88 in 10.0 mi ESE 11.5 mph 16.1 mph N/A   Scattered Clouds
7:35 PM 35.6 °F 28.0 °F 24.8 °F 65% 29.87 in 10.0 mi ESE 10.4 mph - N/A   Mostly Cloudy
7:55 PM 35.6 °F 27.5 °F 26.6 °F 70% 29.87 in 10.0 mi ESE 11.5 mph - N/A   Overcast
8:15 PM 35.6 °F 27.1 °F 26.6 °F 70% 29.87 in 10.0 mi East 12.7 mph - N/A   Overcast
8:35 PM 35.6 °F 28.0 °F 26.6 °F 70% 29.85 in 10.0 mi ESE 10.4 mph 17.3 mph N/A   Overcast
8:55 PM 35.6 °F 28.6 °F 26.6 °F 70% 29.86 in 10.0 mi ESE 9.2 mph 20.7 mph N/A   Overcast
9:15 PM 33.8 °F 24.8 °F 26.6 °F 75% 29.87 in 10.0 mi East 12.7 mph - N/A   Overcast
9:35 PM 33.8 °F 25.3 °F 26.6 °F 75% 29.87 in 10.0 mi East 11.5 mph 17.3 mph N/A   Overcast
9:55 PM 33.8 °F 25.8 °F 26.6 °F 75% 29.86 in 10.0 mi ESE 10.4 mph 16.1 mph N/A   Overcast
10:15 PM 33.8 °F 25.8 °F 26.6 °F 75% 29.86 in 10.0 mi East 10.4 mph 16.1 mph N/A   Overcast
10:35 PM 33.8 °F 25.8 °F 26.6 °F 75% 29.86 in 10.0 mi East 10.4 mph - N/A   Overcast
10:55 PM 33.8 °F 25.8 °F 26.6 °F 75% 29.85 in 10.0 mi East 10.4 mph 16.1 mph N/A   Overcast
11:15 PM 33.8 °F 27.0 °F 26.6 °F 75% 29.85 in 10.0 mi East 8.1 mph - N/A   Overcast
11:35 PM 33.8 °F 25.3 °F 26.6 °F 75% 29.83 in 7.0 mi East 11.5 mph 17.3 mph N/A   Overcast
11:55 PM 33.8 °F 25.8 °F 26.6 °F 75% 29.83 in 7.0 mi East 10.4 mph - N/A   Overcast